sensor_id;sensor_type;location;lat;lon;timestamp;P1;durP1;ratioP1;P2;durP2;ratioP2
18340;SDS011;9296;48.084;16.352;2022-09-09T00:02:14;1.50;;;0.93;;
18340;SDS011;9296;48.084;16.352;2022-09-09T00:04:45;2.25;;;0.93;;
18340;SDS011;9296;48.084;16.352;2022-09-09T00:07:17;1.10;;;0.90;;
18340;SDS011;9296;48.084;16.352;2022-09-09T00:09:49;1.42;;;0.80;;
18340;SDS011;9296;48.084;16.352;2022-09-09T00:12:20;2.45;;;0.90;;
18340;SDS011;9296;48.084;16.352;2022-09-09T00:14:50;1.17;;;0.88;;
18340;SDS011;9296;48.084;16.352;2022-09-09T00:17:22;1.13;;;0.82;;
18340;SDS011;9296;48.084;16.352;2022-09-09T00:19:53;1.65;;;1.00;;
18340;SDS011;9296;48.084;16.352;2022-09-09T00:22:22;1.48;;;0.90;;
18340;SDS011;9296;48.084;16.352;2022-09-09T00:24:52;1.10;;;1.00;;
18340;SDS011;9296;48.084;16.352;2022-09-09T00:30:23;1.30;;;0.90;;
18340;SDS011;9296;48.084;16.352;2022-09-09T00:32:53;2.47;;;0.95;;
18340;SDS011;9296;48.084;16.352;2022-09-09T00:35:24;1.15;;;0.98;;
18340;SDS011;9296;48.084;16.352;2022-09-09T00:37:52;2.75;;;0.90;;
18340;SDS011;9296;48.084;16.352;2022-09-09T00:40:27;2.60;;;0.88;;
18340;SDS011;9296;48.084;16.352;2022-09-09T00:46:07;1.00;;;0.80;;
18340;SDS011;9296;48.084;16.352;2022-09-09T00:48:41;1.13;;;0.90;;
18340;SDS011;9296;48.084;16.352;2022-09-09T00:51:12;1.70;;;0.80;;
18340;SDS011;9296;48.084;16.352;2022-09-09T00:53:51;2.28;;;0.80;;
18340;SDS011;9296;48.084;16.352;2022-09-09T00:56:25;2.10;;;0.80;;
18340;SDS011;9296;48.084;16.352;2022-09-09T00:58:55;1.48;;;0.90;;
18340;SDS011;9296;48.084;16.352;2022-09-09T01:01:26;0.80;;;0.80;;
18340;SDS011;9296;48.084;16.352;2022-09-09T01:03:54;2.15;;;0.80;;
18340;SDS011;9296;48.084;16.352;2022-09-09T01:06:26;2.15;;;0.70;;
18340;SDS011;9296;48.084;16.352;2022-09-09T01:09:02;0.65;;;0.63;;
18340;SDS011;9296;48.084;16.352;2022-09-09T01:11:33;0.80;;;0.80;;
18340;SDS011;9296;48.084;16.352;2022-09-09T01:14:05;2.58;;;0.80;;
18340;SDS011;9296;48.084;16.352;2022-09-09T01:16:36;0.80;;;0.80;;
18340;SDS011;9296;48.084;16.352;2022-09-09T01:19:04;1.50;;;0.82;;
18340;SDS011;9296;48.084;16.352;2022-09-09T01:21:35;1.48;;;0.70;;
18340;SDS011;9296;48.084;16.352;2022-09-09T01:24:08;2.70;;;0.75;;
18340;SDS011;9296;48.084;16.352;2022-09-09T01:26:42;1.00;;;0.90;;
18340;SDS011;9296;48.084;16.352;2022-09-09T01:29:11;0.80;;;0.80;;
18340;SDS011;9296;48.084;16.352;2022-09-09T01:31:40;2.05;;;0.80;;
18340;SDS011;9296;48.084;16.352;2022-09-09T01:34:09;0.80;;;0.80;;
18340;SDS011;9296;48.084;16.352;2022-09-09T01:36:37;2.53;;;1.17;;
18340;SDS011;9296;48.084;16.352;2022-09-09T01:39:05;2.15;;;1.25;;
18340;SDS011;9296;48.084;16.352;2022-09-09T01:41:33;1.52;;;0.90;;
18340;SDS011;9296;48.084;16.352;2022-09-09T01:44:01;0.88;;;0.80;;
18340;SDS011;9296;48.084;16.352;2022-09-09T01:46:29;1.55;;;1.02;;
18340;SDS011;9296;48.084;16.352;2022-09-09T01:48:56;1.10;;;0.90;;
18340;SDS011;9296;48.084;16.352;2022-09-09T01:51:24;2.35;;;1.10;;
18340;SDS011;9296;48.084;16.352;2022-09-09T01:53:51;1.58;;;0.80;;
18340;SDS011;9296;48.084;16.352;2022-09-09T01:59:31;1.70;;;1.17;;
18340;SDS011;9296;48.084;16.352;2022-09-09T02:02:06;2.58;;;1.00;;
18340;SDS011;9296;48.084;16.352;2022-09-09T02:04:36;1.35;;;1.00;;
18340;SDS011;9296;48.084;16.352;2022-09-09T02:07:05;1.75;;;1.05;;
18340;SDS011;9296;48.084;16.352;2022-09-09T02:09:33;1.67;;;1.10;;
18340;SDS011;9296;48.084;16.352;2022-09-09T02:12:02;4.28;;;1.35;;
18340;SDS011;9296;48.084;16.352;2022-09-09T02:14:34;3.63;;;1.10;;
18340;SDS011;9296;48.084;16.352;2022-09-09T02:17:03;1.48;;;1.13;;
18340;SDS011;9296;48.084;16.352;2022-09-09T02:19:34;2.45;;;1.20;;
18340;SDS011;9296;48.084;16.352;2022-09-09T02:22:03;1.40;;;1.30;;
18340;SDS011;9296;48.084;16.352;2022-09-09T02:24:32;2.75;;;1.40;;
18340;SDS011;9296;48.084;16.352;2022-09-09T02:30:17;2.55;;;1.33;;
18340;SDS011;9296;48.084;16.352;2022-09-09T02:32:45;1.40;;;1.20;;
18340;SDS011;9296;48.084;16.352;2022-09-09T02:35:13;1.65;;;1.30;;
18340;SDS011;9296;48.084;16.352;2022-09-09T02:37:41;1.30;;;1.20;;
18340;SDS011;9296;48.084;16.352;2022-09-09T02:40:11;1.77;;;1.40;;
18340;SDS011;9296;48.084;16.352;2022-09-09T02:45:47;1.50;;;1.40;;
18340;SDS011;9296;48.084;16.352;2022-09-09T02:48:19;1.80;;;1.50;;
18340;SDS011;9296;48.084;16.352;2022-09-09T02:50:49;1.90;;;1.48;;
18340;SDS011;9296;48.084;16.352;2022-09-09T02:53:21;3.60;;;1.70;;
18340;SDS011;9296;48.084;16.352;2022-09-09T02:55:51;1.80;;;1.60;;
18340;SDS011;9296;48.084;16.352;2022-09-09T02:58:21;1.80;;;1.70;;
18340;SDS011;9296;48.084;16.352;2022-09-09T03:00:51;4.78;;;1.95;;
18340;SDS011;9296;48.084;16.352;2022-09-09T03:03:18;3.22;;;1.70;;
18340;SDS011;9296;48.084;16.352;2022-09-09T03:05:47;2.47;;;1.65;;
18340;SDS011;9296;48.084;16.352;2022-09-09T03:08:14;6.45;;;1.75;;
18340;SDS011;9296;48.084;16.352;2022-09-09T03:10:42;3.58;;;1.70;;
18340;SDS011;9296;48.084;16.352;2022-09-09T03:16:13;2.35;;;1.65;;
18340;SDS011;9296;48.084;16.352;2022-09-09T03:18:41;3.10;;;1.83;;
18340;SDS011;9296;48.084;16.352;2022-09-09T03:21:10;3.22;;;1.85;;
18340;SDS011;9296;48.084;16.352;2022-09-09T03:23:38;1.88;;;1.73;;
18340;SDS011;9296;48.084;16.352;2022-09-09T03:32:14;4.25;;;1.90;;
18340;SDS011;9296;48.084;16.352;2022-09-09T03:34:42;2.22;;;1.65;;
18340;SDS011;9296;48.084;16.352;2022-09-09T03:37:09;3.13;;;1.80;;
18340;SDS011;9296;48.084;16.352;2022-09-09T03:39:36;5.10;;;1.98;;
18340;SDS011;9296;48.084;16.352;2022-09-09T03:45:08;5.93;;;2.00;;
18340;SDS011;9296;48.084;16.352;2022-09-09T03:47:38;3.20;;;1.92;;
18340;SDS011;9296;48.084;16.352;2022-09-09T03:50:05;4.05;;;1.77;;
18340;SDS011;9296;48.084;16.352;2022-09-09T03:52:34;3.17;;;2.00;;
18340;SDS011;9296;48.084;16.352;2022-09-09T03:55:01;4.35;;;2.25;;
18340;SDS011;9296;48.084;16.352;2022-09-09T04:00:32;2.67;;;1.80;;
18340;SDS011;9296;48.084;16.352;2022-09-09T04:03:00;2.65;;;1.90;;
18340;SDS011;9296;48.084;16.352;2022-09-09T04:05:27;2.75;;;1.85;;
18340;SDS011;9296;48.084;16.352;2022-09-09T04:07:54;2.28;;;2.05;;
18340;SDS011;9296;48.084;16.352;2022-09-09T04:10:22;2.60;;;2.20;;
18340;SDS011;9296;48.084;16.352;2022-09-09T04:15:53;2.63;;;2.05;;
18340;SDS011;9296;48.084;16.352;2022-09-09T04:18:21;4.68;;;2.00;;
18340;SDS011;9296;48.084;16.352;2022-09-09T04:20:50;3.00;;;1.88;;
18340;SDS011;9296;48.084;16.352;2022-09-09T04:23:18;3.47;;;1.90;;
18340;SDS011;9296;48.084;16.352;2022-09-09T04:25:45;3.88;;;2.10;;
18340;SDS011;9296;48.084;16.352;2022-09-09T04:28:13;3.67;;;1.88;;
18340;SDS011;9296;48.084;16.352;2022-09-09T04:30:40;3.70;;;1.98;;
18340;SDS011;9296;48.084;16.352;2022-09-09T04:33:08;2.75;;;2.33;;
18340;SDS011;9296;48.084;16.352;2022-09-09T04:35:37;3.55;;;2.13;;
18340;SDS011;9296;48.084;16.352;2022-09-09T04:38:05;3.47;;;2.30;;
18340;SDS011;9296;48.084;16.352;2022-09-09T04:40:34;7.45;;;2.45;;
18340;SDS011;9296;48.084;16.352;2022-09-09T04:43:02;3.55;;;2.17;;
18340;SDS011;9296;48.084;16.352;2022-09-09T04:45:30;4.45;;;2.30;;
18340;SDS011;9296;48.084;16.352;2022-09-09T04:47:57;3.40;;;2.60;;
18340;SDS011;9296;48.084;16.352;2022-09-09T04:50:24;2.40;;;2.20;;
18340;SDS011;9296;48.084;16.352;2022-09-09T04:52:54;3.70;;;2.60;;
18340;SDS011;9296;48.084;16.352;2022-09-09T04:55:22;2.58;;;2.10;;
18340;SDS011;9296;48.084;16.352;2022-09-09T04:57:49;3.30;;;2.10;;
18340;SDS011;9296;48.084;16.352;2022-09-09T05:00:16;3.25;;;2.40;;
18340;SDS011;9296;48.084;16.352;2022-09-09T05:02:44;3.22;;;2.30;;
18340;SDS011;9296;48.084;16.352;2022-09-09T05:05:11;3.78;;;2.22;;
18340;SDS011;9296;48.084;16.352;2022-09-09T05:07:38;3.13;;;2.42;;
18340;SDS011;9296;48.084;16.352;2022-09-09T05:10:08;2.50;;;2.10;;
18340;SDS011;9296;48.084;16.352;2022-09-09T05:12:35;5.32;;;2.40;;
18340;SDS011;9296;48.084;16.352;2022-09-09T05:15:03;2.50;;;2.30;;
18340;SDS011;9296;48.084;16.352;2022-09-09T05:17:30;5.35;;;2.60;;
18340;SDS011;9296;48.084;16.352;2022-09-09T05:19:58;3.78;;;2.60;;
18340;SDS011;9296;48.084;16.352;2022-09-09T05:22:26;4.25;;;2.50;;
18340;SDS011;9296;48.084;16.352;2022-09-09T05:24:53;4.35;;;2.33;;
18340;SDS011;9296;48.084;16.352;2022-09-09T05:27:40;3.53;;;2.42;;
18340;SDS011;9296;48.084;16.352;2022-09-09T05:30:08;4.20;;;2.58;;
18340;SDS011;9296;48.084;16.352;2022-09-09T05:32:35;3.50;;;2.65;;
18340;SDS011;9296;48.084;16.352;2022-09-09T05:35:02;2.97;;;2.58;;
18340;SDS011;9296;48.084;16.352;2022-09-09T05:37:30;3.55;;;2.60;;
18340;SDS011;9296;48.084;16.352;2022-09-09T05:39:57;2.72;;;2.50;;
18340;SDS011;9296;48.084;16.352;2022-09-09T05:42:29;3.13;;;2.83;;
18340;SDS011;9296;48.084;16.352;2022-09-09T05:44:58;3.75;;;2.60;;
18340;SDS011;9296;48.084;16.352;2022-09-09T05:47:25;4.25;;;2.40;;
18340;SDS011;9296;48.084;16.352;2022-09-09T05:49:53;3.53;;;2.55;;
18340;SDS011;9296;48.084;16.352;2022-09-09T05:52:20;3.45;;;2.50;;
18340;SDS011;9296;48.084;16.352;2022-09-09T05:54:48;4.50;;;2.65;;
18340;SDS011;9296;48.084;16.352;2022-09-09T05:57:15;4.13;;;2.10;;
18340;SDS011;9296;48.084;16.352;2022-09-09T05:59:44;4.18;;;2.58;;
18340;SDS011;9296;48.084;16.352;2022-09-09T06:02:13;4.00;;;1.92;;
18340;SDS011;9296;48.084;16.352;2022-09-09T06:04:40;5.35;;;2.25;;
18340;SDS011;9296;48.084;16.352;2022-09-09T06:07:07;2.47;;;1.95;;
18340;SDS011;9296;48.084;16.352;2022-09-09T06:09:34;4.97;;;2.00;;
18340;SDS011;9296;48.084;16.352;2022-09-09T06:15:23;3.60;;;2.10;;
18340;SDS011;9296;48.084;16.352;2022-09-09T06:17:55;4.13;;;1.88;;
18340;SDS011;9296;48.084;16.352;2022-09-09T06:20:22;4.63;;;2.10;;
18340;SDS011;9296;48.084;16.352;2022-09-09T06:22:49;3.70;;;2.15;;
18340;SDS011;9296;48.084;16.352;2022-09-09T06:25:17;3.58;;;1.80;;
18340;SDS011;9296;48.084;16.352;2022-09-09T06:30:58;4.32;;;1.67;;
18340;SDS011;9296;48.084;16.352;2022-09-09T06:33:30;3.85;;;1.67;;
18340;SDS011;9296;48.084;16.352;2022-09-09T06:35:57;3.22;;;1.83;;
18340;SDS011;9296;48.084;16.352;2022-09-09T06:38:24;4.82;;;1.98;;
18340;SDS011;9296;48.084;16.352;2022-09-09T06:40:52;4.15;;;1.83;;
18340;SDS011;9296;48.084;16.352;2022-09-09T06:46:25;5.15;;;2.35;;
18340;SDS011;9296;48.084;16.352;2022-09-09T06:48:54;4.43;;;2.22;;
18340;SDS011;9296;48.084;16.352;2022-09-09T06:51:24;9.32;;;2.67;;
18340;SDS011;9296;48.084;16.352;2022-09-09T06:53:52;5.65;;;2.53;;
18340;SDS011;9296;48.084;16.352;2022-09-09T06:56:20;6.75;;;2.60;;
18340;SDS011;9296;48.084;16.352;2022-09-09T06:58:48;5.45;;;2.60;;
18340;SDS011;9296;48.084;16.352;2022-09-09T07:01:17;7.43;;;2.92;;
18340;SDS011;9296;48.084;16.352;2022-09-09T07:03:45;6.05;;;2.72;;
18340;SDS011;9296;48.084;16.352;2022-09-09T07:06:15;5.80;;;2.20;;
18340;SDS011;9296;48.084;16.352;2022-09-09T07:08:43;6.35;;;3.20;;
18340;SDS011;9296;48.084;16.352;2022-09-09T07:11:10;6.43;;;2.70;;
18340;SDS011;9296;48.084;16.352;2022-09-09T07:13:37;4.57;;;2.25;;
18340;SDS011;9296;48.084;16.352;2022-09-09T07:16:04;6.38;;;2.33;;
18340;SDS011;9296;48.084;16.352;2022-09-09T07:18:32;3.50;;;2.13;;
18340;SDS011;9296;48.084;16.352;2022-09-09T07:21:00;5.28;;;2.28;;
18340;SDS011;9296;48.084;16.352;2022-09-09T07:23:29;4.75;;;2.30;;
18340;SDS011;9296;48.084;16.352;2022-09-09T07:25:58;5.20;;;2.00;;
18340;SDS011;9296;48.084;16.352;2022-09-09T07:31:33;3.45;;;1.52;;
18340;SDS011;9296;48.084;16.352;2022-09-09T07:34:03;2.83;;;1.67;;
18340;SDS011;9296;48.084;16.352;2022-09-09T07:36:32;1.95;;;1.55;;
18340;SDS011;9296;48.084;16.352;2022-09-09T07:42:06;2.05;;;1.10;;
18340;SDS011;9296;48.084;16.352;2022-09-09T07:44:44;2.10;;;1.08;;
18340;SDS011;9296;48.084;16.352;2022-09-09T07:47:20;1.83;;;1.00;;
18340;SDS011;9296;48.084;16.352;2022-09-09T07:49:52;3.50;;;1.20;;
18340;SDS011;9296;48.084;16.352;2022-09-09T07:52:21;2.00;;;1.20;;
18340;SDS011;9296;48.084;16.352;2022-09-09T07:54:55;2.40;;;1.35;;
18340;SDS011;9296;48.084;16.352;2022-09-09T08:00:37;1.55;;;1.20;;
18340;SDS011;9296;48.084;16.352;2022-09-09T08:03:14;1.30;;;1.10;;
18340;SDS011;9296;48.084;16.352;2022-09-09T08:05:53;1.98;;;1.33;;
18340;SDS011;9296;48.084;16.352;2022-09-09T08:08:28;1.48;;;1.20;;
18340;SDS011;9296;48.084;16.352;2022-09-09T08:11:07;4.53;;;1.40;;
18340;SDS011;9296;48.084;16.352;2022-09-09T08:17:09;4.97;;;1.38;;
18340;SDS011;9296;48.084;16.352;2022-09-09T08:19:40;3.88;;;1.40;;
18340;SDS011;9296;48.084;16.352;2022-09-09T08:22:09;3.15;;;1.33;;
18340;SDS011;9296;48.084;16.352;2022-09-09T08:24:46;3.83;;;1.20;;
18340;SDS011;9296;48.084;16.352;2022-09-09T08:34:00;7.93;;;1.45;;
18340;SDS011;9296;48.084;16.352;2022-09-09T08:36:29;1.58;;;1.00;;
18340;SDS011;9296;48.084;16.352;2022-09-09T08:39:02;3.08;;;1.20;;
18340;SDS011;9296;48.084;16.352;2022-09-09T08:41:32;4.68;;;1.27;;
18340;SDS011;9296;48.084;16.352;2022-09-09T08:52:41;5.50;;;1.40;;
18340;SDS011;9296;48.084;16.352;2022-09-09T08:55:15;3.35;;;1.20;;
18340;SDS011;9296;48.084;16.352;2022-09-09T08:57:46;2.50;;;1.27;;
18340;SDS011;9296;48.084;16.352;2022-09-09T09:00:19;2.97;;;1.27;;
18340;SDS011;9296;48.084;16.352;2022-09-09T09:02:52;1.83;;;1.13;;
18340;SDS011;9296;48.084;16.352;2022-09-09T09:05:27;2.25;;;1.27;;
18340;SDS011;9296;48.084;16.352;2022-09-09T09:08:02;3.17;;;1.30;;
18340;SDS011;9296;48.084;16.352;2022-09-09T09:10:43;1.70;;;1.10;;
18340;SDS011;9296;48.084;16.352;2022-09-09T09:13:27;1.73;;;1.08;;
18340;SDS011;9296;48.084;16.352;2022-09-09T09:15:58;3.13;;;1.20;;
18340;SDS011;9296;48.084;16.352;2022-09-09T09:18:28;1.75;;;1.10;;
18340;SDS011;9296;48.084;16.352;2022-09-09T09:20:58;2.65;;;1.17;;
18340;SDS011;9296;48.084;16.352;2022-09-09T09:23:31;1.77;;;1.13;;
18340;SDS011;9296;48.084;16.352;2022-09-09T09:26:00;3.28;;;1.30;;
18340;SDS011;9296;48.084;16.352;2022-09-09T09:28:28;1.67;;;1.20;;
18340;SDS011;9296;48.084;16.352;2022-09-09T09:30:57;2.92;;;1.20;;
18340;SDS011;9296;48.084;16.352;2022-09-09T09:33:27;1.85;;;1.08;;
18340;SDS011;9296;48.084;16.352;2022-09-09T09:35:55;1.35;;;1.05;;
18340;SDS011;9296;48.084;16.352;2022-09-09T09:38:26;1.33;;;0.98;;
18340;SDS011;9296;48.084;16.352;2022-09-09T09:40:57;1.35;;;1.20;;
18340;SDS011;9296;48.084;16.352;2022-09-09T09:43:27;1.67;;;1.00;;
18340;SDS011;9296;48.084;16.352;2022-09-09T09:45:57;1.33;;;1.08;;
18340;SDS011;9296;48.084;16.352;2022-09-09T09:48:26;3.65;;;1.00;;
18340;SDS011;9296;48.084;16.352;2022-09-09T09:50:55;2.20;;;1.02;;
18340;SDS011;9296;48.084;16.352;2022-09-09T09:53:23;2.85;;;1.05;;
18340;SDS011;9296;48.084;16.352;2022-09-09T09:55:55;1.73;;;1.00;;
18340;SDS011;9296;48.084;16.352;2022-09-09T10:01:19;3.58;;;1.00;;
18340;SDS011;9296;48.084;16.352;2022-09-09T10:03:51;3.05;;;1.13;;
18340;SDS011;9296;48.084;16.352;2022-09-09T10:06:28;1.17;;;1.00;;
18340;SDS011;9296;48.084;16.352;2022-09-09T10:08:57;2.05;;;1.10;;
18340;SDS011;9296;48.084;16.352;2022-09-09T10:11:28;2.00;;;1.10;;
18340;SDS011;9296;48.084;16.352;2022-09-09T10:17:07;1.70;;;1.00;;
18340;SDS011;9296;48.084;16.352;2022-09-09T10:19:36;2.85;;;1.10;;
18340;SDS011;9296;48.084;16.352;2022-09-09T10:22:14;64.20;;;6.70;;
18340;SDS011;9296;48.084;16.352;2022-09-09T10:24:48;3.50;;;1.33;;
18340;SDS011;9296;48.084;16.352;2022-09-09T10:27:22;2.72;;;1.30;;
18340;SDS011;9296;48.084;16.352;2022-09-09T10:29:58;2.78;;;1.33;;
18340;SDS011;9296;48.084;16.352;2022-09-09T10:32:36;1.90;;;1.20;;
18340;SDS011;9296;48.084;16.352;2022-09-09T10:35:09;3.25;;;1.23;;
18340;SDS011;9296;48.084;16.352;2022-09-09T10:37:49;2.35;;;1.10;;
18340;SDS011;9296;48.084;16.352;2022-09-09T10:40:20;3.20;;;1.02;;
18340;SDS011;9296;48.084;16.352;2022-09-09T10:45:57;1.77;;;0.90;;
18340;SDS011;9296;48.084;16.352;2022-09-09T10:48:33;1.13;;;0.60;;
18340;SDS011;9296;48.084;16.352;2022-09-09T10:51:09;1.88;;;0.75;;
18340;SDS011;9296;48.084;16.352;2022-09-09T10:53:42;1.25;;;0.70;;
18340;SDS011;9296;48.084;16.352;2022-09-09T10:56:13;1.17;;;0.52;;
18340;SDS011;9296;48.084;16.352;2022-09-09T11:07:57;2.40;;;0.80;;
18340;SDS011;9296;48.084;16.352;2022-09-09T11:10:27;1.48;;;0.80;;
18340;SDS011;9296;48.084;16.352;2022-09-09T11:16:00;2.00;;;0.70;;
18340;SDS011;9296;48.084;16.352;2022-09-09T11:18:32;2.63;;;0.70;;
18340;SDS011;9296;48.084;16.352;2022-09-09T11:21:03;3.65;;;0.80;;
18340;SDS011;9296;48.084;16.352;2022-09-09T11:23:37;1.40;;;0.70;;
18340;SDS011;9296;48.084;16.352;2022-09-09T11:26:07;0.57;;;0.50;;
18340;SDS011;9296;48.084;16.352;2022-09-09T11:28:41;0.82;;;0.70;;
18340;SDS011;9296;48.084;16.352;2022-09-09T11:31:22;3.55;;;0.82;;
18340;SDS011;9296;48.084;16.352;2022-09-09T11:33:56;1.25;;;0.70;;
18340;SDS011;9296;48.084;16.352;2022-09-09T11:36:50;2.30;;;0.75;;
18340;SDS011;9296;48.084;16.352;2022-09-09T11:39:32;1.00;;;0.77;;
18340;SDS011;9296;48.084;16.352;2022-09-09T11:42:07;1.25;;;0.60;;
18340;SDS011;9296;48.084;16.352;2022-09-09T11:44:34;1.20;;;0.65;;
18340;SDS011;9296;48.084;16.352;2022-09-09T11:47:01;0.77;;;0.60;;
18340;SDS011;9296;48.084;16.352;2022-09-09T11:49:29;1.08;;;0.60;;
18340;SDS011;9296;48.084;16.352;2022-09-09T11:52:00;1.23;;;0.50;;
18340;SDS011;9296;48.084;16.352;2022-09-09T11:54:46;1.73;;;0.70;;
18340;SDS011;9296;48.084;16.352;2022-09-09T11:57:17;1.17;;;0.60;;
18340;SDS011;9296;48.084;16.352;2022-09-09T12:02:52;1.85;;;0.80;;
18340;SDS011;9296;48.084;16.352;2022-09-09T12:05:19;0.70;;;0.68;;
18340;SDS011;9296;48.084;16.352;2022-09-09T12:07:48;0.70;;;0.52;;
18340;SDS011;9296;48.084;16.352;2022-09-09T12:10:22;2.85;;;0.70;;
18340;SDS011;9296;48.084;16.352;2022-09-09T12:15:54;1.38;;;0.60;;
18340;SDS011;9296;48.084;16.352;2022-09-09T12:18:22;1.25;;;0.60;;
18340;SDS011;9296;48.084;16.352;2022-09-09T12:20:52;2.17;;;0.70;;
18340;SDS011;9296;48.084;16.352;2022-09-09T12:23:32;1.52;;;0.73;;
18340;SDS011;9296;48.084;16.352;2022-09-09T12:26:10;1.20;;;0.75;;
18340;SDS011;9296;48.084;16.352;2022-09-09T12:28:44;1.83;;;0.70;;
18340;SDS011;9296;48.084;16.352;2022-09-09T12:31:14;1.60;;;0.80;;
18340;SDS011;9296;48.084;16.352;2022-09-09T12:33:43;0.80;;;0.75;;
18340;SDS011;9296;48.084;16.352;2022-09-09T12:36:14;1.13;;;0.60;;
18340;SDS011;9296;48.084;16.352;2022-09-09T12:38:42;0.70;;;0.60;;
18340;SDS011;9296;48.084;16.352;2022-09-09T12:41:19;1.05;;;0.70;;
18340;SDS011;9296;48.084;16.352;2022-09-09T12:43:47;2.25;;;0.82;;
18340;SDS011;9296;48.084;16.352;2022-09-09T12:46:17;1.27;;;0.80;;
18340;SDS011;9296;48.084;16.352;2022-09-09T12:48:51;0.80;;;0.80;;
18340;SDS011;9296;48.084;16.352;2022-09-09T12:51:21;4.65;;;0.80;;
18340;SDS011;9296;48.084;16.352;2022-09-09T12:53:50;2.58;;;0.70;;
18340;SDS011;9296;48.084;16.352;2022-09-09T12:56:20;1.58;;;0.88;;
18340;SDS011;9296;48.084;16.352;2022-09-09T12:58:48;3.28;;;0.80;;
18340;SDS011;9296;48.084;16.352;2022-09-09T13:01:18;1.77;;;0.90;;
18340;SDS011;9296;48.084;16.352;2022-09-09T13:03:47;2.00;;;0.98;;
18340;SDS011;9296;48.084;16.352;2022-09-09T13:06:18;4.15;;;1.10;;
18340;SDS011;9296;48.084;16.352;2022-09-09T13:08:48;2.25;;;1.08;;
18340;SDS011;9296;48.084;16.352;2022-09-09T13:11:16;2.55;;;0.90;;
18340;SDS011;9296;48.084;16.352;2022-09-09T13:14:03;2.65;;;0.93;;
18340;SDS011;9296;48.084;16.352;2022-09-09T13:16:32;2.33;;;0.90;;
18340;SDS011;9296;48.084;16.352;2022-09-09T13:19:00;4.85;;;1.30;;
18340;SDS011;9296;48.084;16.352;2022-09-09T13:21:32;2.25;;;1.00;;
18340;SDS011;9296;48.084;16.352;2022-09-09T13:23:59;1.35;;;1.00;;
18340;SDS011;9296;48.084;16.352;2022-09-09T13:26:28;6.72;;;1.30;;
18340;SDS011;9296;48.084;16.352;2022-09-09T13:29:13;3.25;;;1.20;;
18340;SDS011;9296;48.084;16.352;2022-09-09T13:31:43;1.83;;;0.90;;
18340;SDS011;9296;48.084;16.352;2022-09-09T13:34:10;2.05;;;1.13;;
18340;SDS011;9296;48.084;16.352;2022-09-09T13:36:39;1.25;;;1.05;;
18340;SDS011;9296;48.084;16.352;2022-09-09T13:39:13;1.33;;;1.00;;
18340;SDS011;9296;48.084;16.352;2022-09-09T13:41:42;2.25;;;1.00;;
18340;SDS011;9296;48.084;16.352;2022-09-09T13:44:17;3.30;;;1.10;;
18340;SDS011;9296;48.084;16.352;2022-09-09T13:46:45;2.35;;;1.10;;
18340;SDS011;9296;48.084;16.352;2022-09-09T13:49:19;3.70;;;1.00;;
18340;SDS011;9296;48.084;16.352;2022-09-09T13:51:48;1.75;;;1.00;;
18340;SDS011;9296;48.084;16.352;2022-09-09T13:54:16;4.10;;;1.10;;
18340;SDS011;9296;48.084;16.352;2022-09-09T13:56:43;4.97;;;1.10;;
18340;SDS011;9296;48.084;16.352;2022-09-09T13:59:11;3.95;;;1.00;;
18340;SDS011;9296;48.084;16.352;2022-09-09T14:01:40;2.55;;;1.10;;
18340;SDS011;9296;48.084;16.352;2022-09-09T14:04:08;4.47;;;1.40;;
18340;SDS011;9296;48.084;16.352;2022-09-09T14:06:35;6.88;;;1.75;;
18340;SDS011;9296;48.084;16.352;2022-09-09T14:09:04;2.97;;;1.15;;
18340;SDS011;9296;48.084;16.352;2022-09-09T14:11:32;1.65;;;0.80;;
18340;SDS011;9296;48.084;16.352;2022-09-09T14:13:59;1.48;;;0.85;;
18340;SDS011;9296;48.084;16.352;2022-09-09T14:16:26;5.50;;;1.00;;
18340;SDS011;9296;48.084;16.352;2022-09-09T14:18:55;3.00;;;1.00;;
18340;SDS011;9296;48.084;16.352;2022-09-09T14:21:24;4.65;;;0.82;;
18340;SDS011;9296;48.084;16.352;2022-09-09T14:23:52;2.70;;;0.80;;
18340;SDS011;9296;48.084;16.352;2022-09-09T14:26:23;1.90;;;1.00;;
18340;SDS011;9296;48.084;16.352;2022-09-09T14:28:51;2.83;;;1.02;;
18340;SDS011;9296;48.084;16.352;2022-09-09T14:31:18;2.90;;;1.05;;
18340;SDS011;9296;48.084;16.352;2022-09-09T14:33:46;1.58;;;0.90;;
18340;SDS011;9296;48.084;16.352;2022-09-09T14:39:05;1.42;;;0.90;;
18340;SDS011;9296;48.084;16.352;2022-09-09T14:41:32;0.90;;;0.70;;
18340;SDS011;9296;48.084;16.352;2022-09-09T14:44:02;2.00;;;0.80;;
18340;SDS011;9296;48.084;16.352;2022-09-09T14:49:01;2.45;;;0.88;;
18340;SDS011;9296;48.084;16.352;2022-09-09T14:51:37;1.00;;;0.85;;
18340;SDS011;9296;48.084;16.352;2022-09-09T14:54:30;1.92;;;0.82;;
18340;SDS011;9296;48.084;16.352;2022-09-09T14:56:58;1.23;;;0.80;;
18340;SDS011;9296;48.084;16.352;2022-09-09T14:59:26;1.02;;;0.70;;
18340;SDS011;9296;48.084;16.352;2022-09-09T15:02:00;1.70;;;0.85;;
18340;SDS011;9296;48.084;16.352;2022-09-09T15:04:30;1.80;;;0.98;;
18340;SDS011;9296;48.084;16.352;2022-09-09T15:07:00;1.50;;;1.00;;
18340;SDS011;9296;48.084;16.352;2022-09-09T15:09:49;2.20;;;1.00;;
18340;SDS011;9296;48.084;16.352;2022-09-09T15:12:25;1.15;;;1.05;;
18340;SDS011;9296;48.084;16.352;2022-09-09T15:15:08;2.13;;;0.98;;
18340;SDS011;9296;48.084;16.352;2022-09-09T15:18:06;1.10;;;0.85;;
18340;SDS011;9296;48.084;16.352;2022-09-09T15:23:18;2.55;;;0.70;;
18340;SDS011;9296;48.084;16.352;2022-09-09T15:25:53;2.13;;;0.80;;
18340;SDS011;9296;48.084;16.352;2022-09-09T15:28:34;2.35;;;0.80;;
18340;SDS011;9296;48.084;16.352;2022-09-09T15:31:04;0.88;;;0.80;;
18340;SDS011;9296;48.084;16.352;2022-09-09T15:33:32;1.65;;;0.70;;
18340;SDS011;9296;48.084;16.352;2022-09-09T15:36:11;0.82;;;0.70;;
18340;SDS011;9296;48.084;16.352;2022-09-09T15:38:38;2.10;;;0.70;;
18340;SDS011;9296;48.084;16.352;2022-09-09T15:41:07;1.25;;;0.80;;
18340;SDS011;9296;48.084;16.352;2022-09-09T15:43:37;1.02;;;0.70;;
18340;SDS011;9296;48.084;16.352;2022-09-09T15:46:08;1.38;;;0.52;;
18340;SDS011;9296;48.084;16.352;2022-09-09T15:48:49;0.75;;;0.55;;
18340;SDS011;9296;48.084;16.352;2022-09-09T15:51:17;1.75;;;0.60;;
18340;SDS011;9296;48.084;16.352;2022-09-09T15:53:45;1.58;;;0.60;;
18340;SDS011;9296;48.084;16.352;2022-09-09T15:56:13;1.83;;;0.50;;
18340;SDS011;9296;48.084;16.352;2022-09-09T15:58:42;0.65;;;0.40;;
18340;SDS011;9296;48.084;16.352;2022-09-09T16:01:09;1.33;;;0.50;;
18340;SDS011;9296;48.084;16.352;2022-09-09T16:03:38;1.42;;;0.68;;
18340;SDS011;9296;48.084;16.352;2022-09-09T16:06:06;1.08;;;0.70;;
18340;SDS011;9296;48.084;16.352;2022-09-09T16:08:33;1.35;;;0.60;;
18340;SDS011;9296;48.084;16.352;2022-09-09T16:11:05;0.98;;;0.63;;
18340;SDS011;9296;48.084;16.352;2022-09-09T16:13:36;0.98;;;0.73;;
18340;SDS011;9296;48.084;16.352;2022-09-09T16:16:04;2.08;;;0.80;;
18340;SDS011;9296;48.084;16.352;2022-09-09T16:18:36;0.90;;;0.70;;
18340;SDS011;9296;48.084;16.352;2022-09-09T16:21:05;1.88;;;0.90;;
18340;SDS011;9296;48.084;16.352;2022-09-09T16:23:33;1.38;;;0.90;;
18340;SDS011;9296;48.084;16.352;2022-09-09T16:26:01;2.03;;;0.95;;
18340;SDS011;9296;48.084;16.352;2022-09-09T16:28:28;1.17;;;0.82;;
18340;SDS011;9296;48.084;16.352;2022-09-09T16:30:56;2.55;;;1.10;;
18340;SDS011;9296;48.084;16.352;2022-09-09T16:33:24;2.25;;;1.10;;
18340;SDS011;9296;48.084;16.352;2022-09-09T16:35:51;2.28;;;1.30;;
18340;SDS011;9296;48.084;16.352;2022-09-09T16:38:18;2.25;;;1.10;;
18340;SDS011;9296;48.084;16.352;2022-09-09T16:40:45;2.30;;;1.10;;
18340;SDS011;9296;48.084;16.352;2022-09-09T16:43:15;3.17;;;1.30;;
18340;SDS011;9296;48.084;16.352;2022-09-09T16:48:37;2.10;;;1.10;;
18340;SDS011;9296;48.084;16.352;2022-09-09T16:51:04;3.42;;;1.30;;
18340;SDS011;9296;48.084;16.352;2022-09-09T16:53:33;2.78;;;1.20;;
18340;SDS011;9296;48.084;16.352;2022-09-09T16:56:04;1.77;;;1.10;;
18340;SDS011;9296;48.084;16.352;2022-09-09T16:58:31;1.45;;;1.10;;